Time;durP1;ratioP1;P1;durP2;ratioP2;P2;SDS_P1;SDS_P2;PMS_P1;PMS_P2;Temp;Humidity;BMP_temperature;BMP_pressure;BME280_temperature;BME280_humidity;BME280_pressure;Samples;Min_cycle;Max_cycle;Signal;HPM_P1;HPM_P2
2023/01/11 00:00:16;;;;;;;31.20;20.48;;;;;;;9.93;100.00;100376.13;5047403;28;20032;-76
2023/01/11 00:02:44;;;;;;;26.17;18.55;;;;;;;9.95;100.00;100388.41;5030537;28;20495;-77
2023/01/11 00:05:10;;;;;;;26.60;18.38;;;;;;;9.97;100.00;100381.22;5064248;28;20055;-76
2023/01/11 00:07:38;;;;;;;28.23;18.52;;;;;;;9.99;100.00;100383.75;5028796;28;20095;-77
2023/01/11 00:10:06;;;;;;;30.35;19.20;;;;;;;10.00;100.00;100370.34;5043795;28;20092;-77
2023/01/11 00:12:33;;;;;;;27.48;18.35;;;;;;;10.03;100.00;100375.50;5030658;28;20498;-77
2023/01/11 00:15:00;;;;;;;30.00;18.50;;;;;;;10.04;100.00;100392.34;5045076;28;20050;-78
2023/01/11 00:17:28;;;;;;;25.20;16.90;;;;;;;10.04;100.00;100377.19;5067167;28;20043;-77
2023/01/11 00:19:54;;;;;;;26.73;16.60;;;;;;;10.07;100.00;100376.16;5066826;28;20036;-77
2023/01/11 00:22:21;;;;;;;26.95;17.48;;;;;;;10.07;100.00;100376.16;5048836;28;20178;-77
2023/01/11 00:24:47;;;;;;;26.52;17.58;;;;;;;10.08;100.00;100367.19;5047754;28;21433;-77
2023/01/11 00:27:32;;;;;;;25.73;16.67;;;;;;;10.12;100.00;100371.41;5068977;28;20029;-76
2023/01/11 00:29:58;;;;;;;30.42;16.65;;;;;;;10.13;100.00;100385.59;5068345;28;20115;-77
2023/01/11 00:32:26;;;;;;;26.88;16.13;;;;;;;10.15;100.00;100375.69;5066875;28;20060;-77
2023/01/11 00:34:53;;;;;;;31.75;17.02;;;;;;;10.19;100.00;100377.22;5067329;28;20055;-78
2023/01/11 00:37:20;;;;;;;27.00;16.42;;;;;;;10.18;100.00;100376.38;5050997;28;20025;-77
2023/01/11 00:39:47;;;;;;;29.77;17.00;;;;;;;10.18;100.00;100370.19;5047101;28;20037;-77
2023/01/11 00:48:03;;;;;;;31.48;18.77;;;;;;;10.19;100.00;100394.06;5069466;28;20040;-77
2023/01/11 00:50:39;;;;;;;29.23;17.20;;;;;;;10.23;100.00;100381.41;5066151;28;20120;-77
2023/01/11 00:53:07;;;;;;;29.80;16.98;;;;;;;10.21;100.00;100369.97;5051859;28;20032;-77
2023/01/11 00:55:37;;;;;;;33.22;17.42;;;;;;;10.22;100.00;100372.56;5049819;28;20036;-79
2023/01/11 00:58:03;;;;;;;29.05;18.10;;;;;;;10.26;100.00;100370.56;5036011;28;20036;-78
2023/01/11 01:00:30;;;;;;;24.40;16.67;;;;;;;10.25;100.00;100372.38;5050370;28;20028;-78
2023/01/11 01:02:56;;;;;;;24.65;16.52;;;;;;;10.28;100.00;100380.19;5049880;28;20498;-77
2023/01/11 01:05:22;;;;;;;28.27;17.10;;;;;;;10.30;100.00;100366.75;5016293;28;20041;-77
2023/01/11 01:07:49;;;;;;;30.13;16.40;;;;;;;10.31;100.00;100371.19;5070946;28;20123;-77
2023/01/11 01:10:16;;;;;;;20.65;15.07;;;;;;;10.33;100.00;100369.25;5048221;28;20075;-77
2023/01/11 01:15:28;;;;;;;21.67;15.10;;;;;;;10.34;100.00;100375.44;5053091;28;20687;-76
2023/01/11 01:17:55;;;;;;;22.17;14.25;;;;;;;10.35;100.00;100375.38;5067524;28;20036;-76
2023/01/11 01:20:25;;;;;;;21.58;15.57;;;;;;;10.38;100.00;100385.84;5068566;28;20036;-76
2023/01/11 01:22:51;;;;;;;22.60;14.85;;;;;;;10.37;100.00;100381.47;5069550;28;20044;-76
2023/01/11 01:25:18;;;;;;;21.23;14.45;;;;;;;10.39;100.00;100381.38;5049749;28;20086;-76
2023/01/11 01:27:44;;;;;;;19.75;14.73;;;;;;;10.40;100.00;100377.72;5068826;28;20390;-76
2023/01/11 01:30:11;;;;;;;24.83;14.65;;;;;;;10.40;100.00;100389.28;5049944;28;20487;-76
2023/01/11 01:32:37;;;;;;;21.48;14.68;;;;;;;10.41;100.00;100388.31;5051433;28;20615;-77
2023/01/11 01:35:04;;;;;;;21.65;15.73;;;;;;;10.41;100.00;100384.78;5067905;28;20037;-76
2023/01/11 01:37:31;;;;;;;17.85;14.88;;;;;;;10.43;100.00;100393.56;5068797;28;20056;-76
2023/01/11 01:40:34;;;;;;;22.77;13.43;;;;;;;10.46;100.00;100378.22;5069731;28;20079;-76
2023/01/11 01:43:01;;;;;;;21.42;13.80;;;;;;;10.46;100.00;100385.38;5069437;28;20029;-76
2023/01/11 01:45:28;;;;;;;18.50;13.02;;;;;;;10.48;100.00;100392.31;5041536;28;20065;-75
2023/01/11 01:48:01;;;;;;;16.45;13.15;;;;;;;10.52;100.00;100398.31;5059663;28;20108;-75
2023/01/11 01:50:40;;;;;;;15.90;13.00;;;;;;;10.52;100.00;100402.81;5052537;28;20059;-76
2023/01/11 01:53:16;;;;;;;18.50;13.77;;;;;;;10.52;100.00;100398.31;5032582;28;20075;-77
2023/01/11 01:55:49;;;;;;;21.40;13.90;;;;;;;10.51;100.00;100385.06;5065153;28;20036;-76
2023/01/11 01:58:18;;;;;;;17.98;12.15;;;;;;;10.52;100.00;100398.31;5049889;28;20028;-76
2023/01/11 02:00:45;;;;;;;19.65;13.07;;;;;;;10.56;100.00;100404.34;5033348;28;20036;-76
2023/01/11 02:03:20;;;;;;;17.15;12.85;;;;;;;10.57;100.00;100406.06;5050734;28;20399;-76
2023/01/11 02:05:48;;;;;;;16.02;12.73;;;;;;;10.58;100.00;100411.28;5067196;28;20616;-76
2023/01/11 02:08:26;;;;;;;20.17;13.70;;;;;;;10.59;100.00;100425.50;5068197;28;20055;-76
2023/01/11 02:10:53;;;;;;;17.00;13.15;;;;;;;10.58;100.00;100421.09;5032544;28;20043;-76
2023/01/11 02:13:20;;;;;;;16.83;12.13;;;;;;;10.59;100.00;100420.16;5046008;28;20036;-78
2023/01/11 02:16:06;;;;;;;18.20;12.50;;;;;;;10.58;100.00;100410.44;5048629;28;20399;-77
2023/01/11 02:18:35;;;;;;;15.35;11.65;;;;;;;10.63;100.00;100416.34;5069415;28;20032;-78
2023/01/11 02:21:15;;;;;;;15.40;11.75;;;;;;;10.64;100.00;100418.03;5066274;28;20024;-76
2023/01/11 02:23:58;;;;;;;13.77;9.57;;;;;;;10.64;100.00;100407.38;5063602;28;20883;-77
2023/01/11 02:26:24;;;;;;;13.68;9.98;;;;;;;10.65;100.00;100415.28;5065186;28;20036;-76
2023/01/11 02:28:59;;;;;;;16.00;10.60;;;;;;;10.66;100.00;100416.13;5068671;28;20032;-75
2023/01/11 02:31:47;;;;;;;13.63;9.23;;;;;;;10.66;100.00;100403.66;5051272;28;20041;-76
2023/01/11 02:34:28;;;;;;;11.55;9.98;;;;;;;10.65;100.00;100411.78;5066146;28;20028;-76
2023/01/11 02:37:07;;;;;;;;;;;;;;;10.65;100.00;100412.63;5067134;28;20058;-76
2023/01/11 02:39:47;;;;;;;13.63;8.68;;;;;;;10.67;100.00;100415.19;5048166;28;19923;-76
2023/01/11 02:45:15;;;;;;;14.45;10.05;;;;;;;10.65;100.00;100409.94;5064990;28;20048;-76
2023/01/11 02:48:00;;;;;;;16.92;10.93;;;;;;;10.66;100.00;100405.47;5049147;28;20542;-76
2023/01/11 02:50:48;;;;;;;19.58;11.32;;;;;;;10.66;100.00;100417.03;5031767;28;20466;-75
2023/01/11 02:53:37;;;;;;;15.38;11.50;;;;;;;10.69;100.00;100425.78;5045970;28;20560;-75
2023/01/11 02:56:08;;;;;;;14.13;11.10;;;;;;;10.70;100.00;100425.69;5049979;28;20039;-76
2023/01/11 02:58:36;;;;;;;18.10;11.27;;;;;;;10.71;100.00;100430.06;5047812;28;20044;-76
2023/01/11 03:01:03;;;;;;;20.63;11.25;;;;;;;10.72;100.00;100428.28;5048251;28;20116;-76
2023/01/11 03:03:29;;;;;;;19.95;11.00;;;;;;;10.73;100.00;100421.97;5064880;28;20462;-76
2023/01/11 03:06:05;;;;;;;17.95;11.45;;;;;;;10.74;100.00;100432.56;5064600;28;20581;-76
2023/01/11 03:09:09;;;;;;;15.95;9.73;;;;;;;10.74;100.00;100424.53;5065632;28;20024;-76
2023/01/11 03:15:03;;;;;;;16.23;11.05;;;;;;;10.77;100.00;100437.72;5064116;28;20552;-76
2023/01/11 03:17:36;;;;;;;15.63;11.00;;;;;;;10.79;100.00;100442.94;5059689;28;20123;-76
2023/01/11 03:20:12;;;;;;;20.40;10.90;;;;;;;10.82;100.00;100443.59;5065006;28;20042;-76
2023/01/11 03:22:53;;;;;;;15.75;10.57;;;;;;;10.80;100.00;100445.50;5046638;28;20483;-76
2023/01/11 03:25:37;;;;;;;17.20;10.95;;;;;;;10.81;100.00;100451.69;5047208;28;20056;-76
2023/01/11 03:28:16;;;;;;;14.18;9.98;;;;;;;10.80;100.00;100448.19;5040860;28;20522;-76
2023/01/11 03:30:50;;;;;;;20.50;11.32;;;;;;;10.77;100.00;100440.38;5040978;28;20035;-76
2023/01/11 03:33:22;;;;;;;20.15;11.45;;;;;;;10.77;100.00;100448.38;5050300;28;20343;-76
2023/01/11 03:36:07;;;;;;;17.15;11.40;;;;;;;10.80;100.00;100439.31;5031067;28;20046;-76
2023/01/11 03:38:40;;;;;;;18.90;9.95;;;;;;;10.80;100.00;100444.66;5065309;28;20051;-76
2023/01/11 03:41:11;;;;;;;16.90;10.02;;;;;;;10.81;100.00;100451.69;5063696;28;20035;-76
2023/01/11 03:43:39;;;;;;;17.95;9.48;;;;;;;10.79;100.00;100443.81;5031343;28;20121;-77
2023/01/11 03:46:18;;;;;;;12.52;9.38;;;;;;;10.83;100.00;100450.66;5050063;28;20397;-77
2023/01/11 03:48:46;;;;;;;13.68;8.30;;;;;;;10.82;100.00;100459.63;5030958;28;20027;-76
2023/01/11 03:51:17;;;;;;;14.07;9.25;;;;;;;10.80;100.00;100461.53;5047928;28;20586;-77
2023/01/11 03:53:45;;;;;;;17.85;9.15;;;;;;;10.81;100.00;100463.25;5032598;28;20060;-76
2023/01/11 03:56:14;;;;;;;17.67;9.60;;;;;;;10.81;100.00;100460.59;5061743;28;20032;-75
2023/01/11 03:58:41;;;;;;;17.70;9.63;;;;;;;10.82;100.00;100453.44;5043338;28;20068;-76
2023/01/11 04:01:08;;;;;;;21.83;10.65;;;;;;;10.82;100.00;100461.44;5060226;28;20035;-76
2023/01/11 04:03:34;;;;;;;19.35;10.35;;;;;;;10.81;100.00;100465.03;5067200;28;20451;-80
2023/01/11 04:06:02;;;;;;;21.27;10.55;;;;;;;10.81;100.00;100476.63;5066049;28;20041;-75
2023/01/11 04:08:29;;;;;;;22.17;11.35;;;;;;;10.80;100.00;100480.22;5048929;28;20441;-75
2023/01/11 04:10:56;;;;;;;21.30;9.75;;;;;;;10.80;100.00;100466.88;5049860;28;20720;-76
2023/01/11 04:13:22;;;;;;;18.30;9.20;;;;;;;10.80;100.00;100472.22;5070290;28;20093;-76
2023/01/11 04:15:49;;;;;;;21.80;8.45;;;;;;;10.79;100.00;100475.84;5054043;28;20052;-76
2023/01/11 04:18:15;;;;;;;25.23;9.02;;;;;;;10.79;100.00;100481.19;5053304;28;20047;-76
2023/01/11 04:20:41;;;;;;;35.47;7.90;;;;;;;10.79;100.00;100486.53;5079924;28;20044;-74
2023/01/11 04:23:09;;;;;;;25.58;7.50;;;;;;;10.83;100.00;100498.72;5049430;28;20631;-74
2023/01/11 04:25:35;;;;;;;30.58;7.70;;;;;;;10.82;100.00;100502.34;5055702;28;20033;-77
2023/01/11 04:28:01;;;;;;;36.72;8.57;;;;;;;10.83;100.00;100511.22;5060149;28;20074;-77
2023/01/11 04:30:28;;;;;;;26.60;6.80;;;;;;;10.83;100.00;100505.91;5067818;28;20060;-76
2023/01/11 04:32:57;;;;;;;30.48;6.43;;;;;;;10.84;100.00;100505.78;5052418;28;20043;-76
2023/01/11 04:35:24;;;;;;;29.83;7.05;;;;;;;10.79;100.00;100507.91;5066664;28;20029;-76
2023/01/11 04:37:57;;;;;;;33.28;6.93;;;;;;;10.81;100.00;100500.66;5052047;28;20021;-76
2023/01/11 04:40:24;;;;;;;23.98;5.90;;;;;;;10.80;100.00;100503.41;5068071;28;20764;-76
2023/01/11 04:42:51;;;;;;;34.13;6.28;;;;;;;10.77;100.00;100504.47;5033579;28;20048;-76
2023/01/11 04:45:17;;;;;;;35.10;6.20;;;;;;;10.75;100.00;100498.31;5062780;28;20036;-77
2023/01/11 04:47:43;;;;;;;34.33;5.95;;;;;;;10.74;100.00;100503.78;5067491;28;20403;-76
2023/01/11 04:50:10;;;;;;;32.10;6.60;;;;;;;10.69;100.00;100505.88;5048228;28;20048;-77
2023/01/11 04:52:39;;;;;;;43.65;6.60;;;;;;;10.68;100.00;100515.69;5069499;28;20048;-78
2023/01/11 04:55:05;;;;;;;35.95;5.88;;;;;;;10.66;100.00;100522.91;5066935;28;20032;-78
2023/01/11 04:57:32;;;;;;;37.97;6.28;;;;;;;10.59;100.00;100522.44;5068365;28;20885;-77
2023/01/11 04:59:58;;;;;;;30.75;5.55;;;;;;;10.58;100.00;100525.22;5049783;28;20120;-77
2023/01/11 05:02:24;;;;;;;41.85;5.90;;;;;;;10.55;100.00;100525.38;5052045;28;20068;-76
2023/01/11 05:04:52;;;;;;;37.78;5.63;;;;;;;10.53;100.00;100522.84;5067303;28;20040;-77
2023/01/11 05:07:18;;;;;;;33.75;6.22;;;;;;;10.51;100.00;100521.19;5067291;28;20126;-77
2023/01/11 05:09:44;;;;;;;47.63;5.30;;;;;;;10.48;100.00;100520.41;5046097;28;20581;-77
2023/01/11 05:12:11;;;;;;;42.65;6.18;;;;;;;10.43;100.00;100517.16;5050141;28;20432;-76
2023/01/11 05:14:37;;;;;;;34.38;5.43;;;;;;;10.40;100.00;100522.72;5069620;28;20395;-77
2023/01/11 05:17:03;;;;;;;47.13;6.40;;;;;;;10.37;100.00;100525.53;5052130;28;20091;-76
2023/01/11 05:19:30;;;;;;;44.88;7.20;;;;;;;10.33;100.00;100532.03;5069316;28;20043;-77
2023/01/11 05:21:56;;;;;;;43.92;6.18;;;;;;;10.29;100.00;100535.78;5065017;28;20435;-76
2023/01/11 05:24:22;;;;;;;36.38;6.35;;;;;;;10.26;100.00;100535.97;5051414;28;20064;-77
2023/01/11 05:26:51;;;;;;;49.03;6.95;;;;;;;10.26;100.00;100547.50;5052175;28;20037;-76
2023/01/11 05:29:19;;;;;;;38.95;6.85;;;;;;;10.25;100.00;100545.78;5048766;28;20072;-76
2023/01/11 05:31:46;;;;;;;49.33;5.85;;;;;;;10.21;100.00;100554.03;5069879;28;20052;-76
2023/01/11 05:34:13;;;;;;;38.15;5.68;;;;;;;10.18;100.00;100554.25;5034473;28;20051;-76
2023/01/11 05:36:40;;;;;;;37.25;6.47;;;;;;;10.14;100.00;100564.22;5051302;28;20024;-76
2023/01/11 05:39:07;;;;;;;41.83;6.53;;;;;;;10.13;100.00;100559.81;5050886;28;20025;-76
2023/01/11 05:41:33;;;;;;;46.47;6.47;;;;;;;10.12;100.00;100560.78;5069583;28;20028;-76
2023/01/11 05:46:44;;;;;;;43.72;5.85;;;;;;;10.07;100.00;100563.72;5052092;28;20037;-77
2023/01/11 05:49:11;;;;;;;37.00;5.95;;;;;;;10.02;100.00;100570.25;5032450;28;20119;-76
2023/01/11 05:51:38;;;;;;;46.40;7.32;;;;;;;10.00;100.00;100566.81;5047313;28;20414;-77
2023/01/11 05:54:08;;;;;;;38.00;5.45;;;;;;;9.98;100.00;100558.91;5025586;28;20040;-76
2023/01/11 05:56:34;;;;;;;35.92;5.03;;;;;;;9.94;100.00;100561.84;5045782;28;20032;-76
2023/01/11 05:59:02;;;;;;;38.33;5.28;;;;;;;9.91;100.00;100584.19;5047704;28;20029;-76
2023/01/11 06:01:29;;;;;;;34.30;5.60;;;;;;;9.91;100.00;100578.88;5050854;28;20078;-77
2023/01/11 06:03:55;;;;;;;32.40;5.10;;;;;;;9.87;100.00;100577.31;5047937;28;20490;-77
2023/01/11 06:06:22;;;;;;;38.20;6.47;;;;;;;9.86;100.00;100578.28;5036485;28;20081;-76
2023/01/11 06:08:48;;;;;;;38.97;5.47;;;;;;;9.86;100.00;100576.47;5047096;28;20033;-76
2023/01/11 06:11:15;;;;;;;39.85;6.25;;;;;;;9.82;100.00;100580.28;5044046;28;20515;-76
2023/01/11 06:13:41;;;;;;;38.75;4.97;;;;;;;9.81;100.00;100593.69;5047476;28;20032;-77
2023/01/11 06:16:13;;;;;;;36.22;6.20;;;;;;;9.78;100.00;100589.34;5043621;28;20032;-77
2023/01/11 06:18:42;;;;;;;44.10;5.63;;;;;;;9.74;100.00;100602.97;5048509;28;20422;-76
2023/01/11 06:21:09;;;;;;;31.83;4.60;;;;;;;9.76;100.00;100611.72;5044495;28;20417;-77
2023/01/11 06:23:38;;;;;;;34.47;5.40;;;;;;;9.74;100.00;100602.97;5029899;28;20420;-77
2023/01/11 06:26:07;;;;;;;36.08;4.38;;;;;;;9.70;100.00;100597.78;5047650;28;20093;-75
2023/01/11 06:28:34;;;;;;;31.70;4.75;;;;;;;9.67;100.00;100611.31;5046703;28;20049;-80
2023/01/11 06:31:01;;;;;;;31.35;4.45;;;;;;;9.63;100.00;100619.53;5047370;28;20463;-75
2023/01/11 06:33:28;;;;;;;31.23;4.65;;;;;;;9.61;100.00;100624.94;5028464;28;20037;-76
2023/01/11 06:35:55;;;;;;;44.28;5.75;;;;;;;9.56;100.00;100616.38;5052497;28;20036;-76
2023/01/11 06:38:23;;;;;;;33.28;4.50;;;;;;;9.55;100.00;100619.13;5046277;28;20398;-76
2023/01/11 06:40:52;;;;;;;35.00;4.93;;;;;;;9.49;100.00;100617.66;5046725;28;20052;-76
2023/01/11 06:43:19;;;;;;;32.42;3.75;;;;;;;9.43;100.00;100617.97;5047254;28;20036;-76
2023/01/11 06:45:46;;;;;;;32.47;4.25;;;;;;;9.35;100.00;100606.88;5046560;28;20669;-76
2023/01/11 06:48:12;;;;;;;30.00;4.72;;;;;;;9.27;100.00;100613.47;5047717;28;20032;-77
2023/01/11 06:50:38;;;;;;;35.42;4.82;;;;;;;9.23;100.00;100617.25;5050650;28;20052;-76
2023/01/11 06:53:06;;;;;;;27.83;3.80;;;;;;;9.23;100.00;100624.38;5067778;28;20094;-77
2023/01/11 06:55:34;;;;;;;35.10;5.00;;;;;;;9.22;100.00;100628.81;5069345;28;20525;-78
2023/01/11 06:58:00;;;;;;;28.48;4.78;;;;;;;9.22;100.00;100634.16;5040672;28;20036;-74
2023/01/11 07:00:26;;;;;;;31.23;4.82;;;;;;;9.20;100.00;100636.03;5081038;28;20032;-76
2023/01/11 07:02:53;;;;;;;26.85;4.18;;;;;;;9.20;100.00;100635.19;5078673;28;20142;-76
2023/01/11 07:05:19;;;;;;;20.98;3.50;;;;;;;9.19;100.00;100634.34;5068854;28;20499;-77
2023/01/11 07:07:45;;;;;;;27.13;4.35;;;;;;;9.15;100.00;100639.88;5068057;28;20787;-77
2023/01/11 07:10:14;;;;;;;24.52;4.05;;;;;;;9.11;100.00;100640.06;5067340;28;20048;-77
2023/01/11 07:12:41;;;;;;;29.52;5.65;;;;;;;9.11;100.00;100648.06;5048893;28;20503;-77
2023/01/11 07:15:09;;;;;;;32.70;4.55;;;;;;;9.09;100.00;100636.59;5067406;28;20024;-77
2023/01/11 07:17:35;;;;;;;22.95;3.85;;;;;;;9.12;100.00;100648.91;5065791;28;20033;-78
2023/01/11 07:20:02;;;;;;;31.88;4.32;;;;;;;9.11;100.00;100660.50;5066686;28;20040;-77
2023/01/11 07:22:29;;;;;;;18.27;3.53;;;;;;;9.12;100.00;100671.06;5050869;28;20064;-77
2023/01/11 07:24:55;;;;;;;26.58;4.85;;;;;;;9.11;100.00;100676.47;5031219;28;20044;-77
2023/01/11 07:27:21;;;;;;;38.67;5.35;;;;;;;9.11;100.00;100684.47;5062920;28;20040;-77
2023/01/11 07:29:47;;;;;;;28.02;4.22;;;;;;;9.11;100.00;100688.00;5049444;28;20559;-77
2023/01/11 07:32:14;;;;;;;28.13;4.63;;;;;;;9.14;100.00;100694.97;5049229;28;20032;-77
2023/01/11 07:34:40;;;;;;;35.28;5.25;;;;;;;9.15;100.00;100702.03;5047674;28;20040;-77
2023/01/11 07:37:08;;;;;;;30.02;4.85;;;;;;;9.11;100.00;100703.97;5047183;28;20033;-77
2023/01/11 07:39:35;;;;;;;26.67;4.10;;;;;;;9.07;100.00;100693.56;5048865;28;20094;-77
2023/01/11 07:44:47;;;;;;;24.15;3.58;;;;;;;8.93;100.00;100705.78;5056316;28;20044;-77
2023/01/11 07:47:13;;;;;;;29.58;4.88;;;;;;;8.87;100.00;100698.09;5045430;28;20036;-77
2023/01/11 07:49:39;;;;;;;32.70;4.07;;;;;;;8.85;100.00;100692.00;5069213;28;20391;-77
2023/01/11 07:52:05;;;;;;;30.30;4.13;;;;;;;8.81;100.00;100695.72;5064645;28;20041;-77
2023/01/11 07:54:32;;;;;;;28.15;4.47;;;;;;;8.73;100.00;100700.59;5069300;28;20089;-77
2023/01/11 07:56:58;;;;;;;26.27;5.47;;;;;;;8.68;100.00;100707.94;5069175;28;20036;-77
2023/01/11 07:59:26;;;;;;;28.52;4.05;;;;;;;8.59;100.00;100713.72;5068344;28;20043;-77
2023/01/11 08:01:52;;;;;;;28.35;5.57;;;;;;;8.49;100.00;100723.94;5039761;28;20459;-76
2023/01/11 08:04:18;;;;;;;28.48;4.95;;;;;;;8.42;100.00;100723.38;5069391;28;20036;-77
2023/01/11 08:06:45;;;;;;;29.15;4.63;;;;;;;8.38;100.00;100724.44;5041967;28;20052;-76
2023/01/11 08:09:11;;;;;;;35.75;5.60;;;;;;;8.36;100.00;100728.97;5068822;28;20052;-76
2023/01/11 08:14:40;;;;;;;42.33;7.60;;;;;;;8.27;100.00;100746.22;5068888;28;20048;-76
2023/01/11 08:17:14;;;;;;;32.33;5.15;;;;;;;8.22;100.00;100742.03;5037270;28;20431;-76
2023/01/11 08:19:41;;;;;;;34.85;4.72;;;;;;;8.19;100.00;100758.16;5066493;28;20393;-76
2023/01/11 08:22:08;;;;;;;37.10;4.93;;;;;;;8.16;100.00;100751.19;5050420;28;20032;-76
2023/01/11 08:24:38;;;;;;;34.65;4.35;;;;;;;8.13;100.00;100760.16;5050534;28;20546;-78
2023/01/11 08:27:04;;;;;;;35.47;5.95;;;;;;;8.02;100.00;100757.16;5051343;28;20429;-76
2023/01/11 08:29:31;;;;;;;34.35;4.32;;;;;;;8.00;100.00;100768.78;5050732;28;20494;-76
2023/01/11 08:31:59;;;;;;;31.27;5.05;;;;;;;7.96;100.00;100774.25;5072155;28;20490;-76
2023/01/11 08:34:29;;;;;;;31.48;4.40;;;;;;;7.94;100.00;100769.94;5062172;28;20041;-76
2023/01/11 08:36:56;;;;;;;41.72;6.22;;;;;;;7.90;100.00;100778.97;5050709;28;20101;-77
2023/01/11 08:39:23;;;;;;;37.65;5.03;;;;;;;7.84;100.00;100781.91;5068001;28;20036;-77
2023/01/11 08:41:49;;;;;;;42.45;6.13;;;;;;;7.79;100.00;100803.38;5034771;28;20051;-76
2023/01/11 08:44:16;;;;;;;37.72;5.63;;;;;;;7.74;100.00;100795.59;5068046;28;20376;-76
2023/01/11 08:46:42;;;;;;;33.42;5.22;;;;;;;7.68;100.00;100798.53;5068355;28;20044;-76
2023/01/11 08:49:11;;;;;;;36.25;5.53;;;;;;;7.67;100.00;100802.13;5051723;28;20446;-76
2023/01/11 08:51:41;;;;;;;46.30;6.25;;;;;;;7.69;100.00;100802.06;5060991;28;20119;-77
2023/01/11 08:54:12;;;;;;;33.07;5.90;;;;;;;7.72;100.00;100801.94;5040466;28;20047;-76
2023/01/11 08:56:39;;;;;;;38.83;4.57;;;;;;;7.73;100.00;100795.66;5049155;28;20036;-76
2023/01/11 08:59:08;;;;;;;36.50;5.25;;;;;;;7.79;100.00;100802.50;5067087;28;20040;-76
2023/01/11 09:01:35;;;;;;;43.22;6.25;;;;;;;7.82;100.00;100805.03;5054502;28;20506;-76
2023/01/11 09:04:01;;;;;;;27.50;4.90;;;;;;;7.82;100.00;100797.06;5071669;28;20036;-76
2023/01/11 09:06:28;;;;;;;32.47;4.10;;;;;;;7.85;100.00;100807.56;5072456;28;20554;-76
2023/01/11 09:08:54;;;;;;;47.30;6.45;;;;;;;7.86;100.00;100807.47;5071807;28;20068;-75
2023/01/11 09:14:05;;;;;;;34.05;5.38;;;;;;;7.97;100.00;100804.34;5048835;28;20059;-77
2023/01/11 09:16:32;;;;;;;40.53;5.13;;;;;;;8.07;100.00;100818.06;5072160;28;20041;-78
2023/01/11 09:18:58;;;;;;;27.60;4.35;;;;;;;8.10;100.00;100813.47;5054170;28;20025;-75
2023/01/11 09:21:24;;;;;;;35.45;5.78;;;;;;;8.13;100.00;100816.00;5054156;28;20040;-75
2023/01/11 09:23:51;;;;;;;44.80;7.28;;;;;;;8.19;100.00;100822.00;5053586;28;20033;-77
2023/01/11 09:26:17;;;;;;;39.55;5.80;;;;;;;8.25;100.00;100829.69;5072083;28;20060;-77
2023/01/11 09:28:43;;;;;;;32.55;4.88;;;;;;;8.30;100.00;100835.66;5071456;28;20515;-77
2023/01/11 09:31:09;;;;;;;36.95;5.43;;;;;;;8.35;100.00;100844.28;5053762;28;20051;-77
2023/01/11 09:33:37;;;;;;;36.90;5.53;;;;;;;8.44;100.00;100837.69;5071593;28;20131;-77
2023/01/11 09:36:05;;;;;;;38.55;5.40;;;;;;;8.50;100.00;100838.28;5072731;28;20041;-76
2023/01/11 09:38:32;;;;;;;41.15;6.15;;;;;;;8.54;100.00;100839.88;5073163;28;20032;-76
2023/01/11 09:41:18;;;;;;;34.50;5.18;;;;;;;8.62;100.00;100838.63;5085810;28;20060;-76
2023/01/11 09:43:55;;;;;;;40.72;5.00;;;;;;;8.67;100.00;100833.97;5085618;28;20092;-77
2023/01/11 09:46:22;;;;;;;38.22;5.93;;;;;;;8.73;100.00;100828.34;5078981;28;20477;-77
2023/01/11 09:48:53;;;;;;;35.90;5.85;;;;;;;8.75;100.00;100829.13;5056551;28;20032;-77
2023/01/11 09:51:21;;;;;;;32.63;5.22;;;;;;;8.73;100.00;100833.66;5055400;28;20051;-75
2023/01/11 09:53:49;;;;;;;34.63;6.35;;;;;;;8.72;100.00;100837.25;5053248;28;20040;-75
2023/01/11 09:56:23;;;;;;;31.77;5.65;;;;;;;8.74;100.00;100838.03;5071215;28;20032;-76
2023/01/11 09:58:58;;;;;;;40.28;6.13;;;;;;;8.75;100.00;100847.75;5036599;28;20121;-76
2023/01/11 10:01:39;;;;;;;38.40;5.18;;;;;;;8.80;100.00;100856.41;5053662;28;20094;-75
2023/01/11 10:04:22;;;;;;;34.95;5.13;;;;;;;8.84;100.00;100855.31;5053045;28;20048;-75
2023/01/11 10:06:59;;;;;;;37.70;5.45;;;;;;;8.87;100.00;100855.16;5069589;28;20043;-76
2023/01/11 10:09:44;;;;;;;41.70;7.50;;;;;;;8.94;100.00;100855.72;5070552;28;20045;-76
2023/01/11 10:12:24;;;;;;;37.47;4.80;;;;;;;9.00;100.00;100858.09;5070770;28;20097;-76
2023/01/11 10:14:53;;;;;;;35.80;5.20;;;;;;;9.05;100.00;100857.88;5053496;28;20028;-76
2023/01/11 10:17:23;;;;;;;35.05;4.80;;;;;;;9.10;100.00;100862.03;5070759;28;20051;-76
2023/01/11 10:20:00;;;;;;;29.73;4.68;;;;;;;9.14;100.00;100859.22;5072008;28;20036;-76
2023/01/11 10:22:35;;;;;;;36.83;5.55;;;;;;;9.18;100.00;100864.31;5052744;28;20526;-76
2023/01/11 10:25:17;;;;;;;32.70;4.47;;;;;;;9.21;100.00;100868.66;5053140;28;20037;-76
2023/01/11 10:27:55;;;;;;;35.53;5.43;;;;;;;9.23;100.00;100870.28;5053514;28;20101;-76
2023/01/11 10:36:38;;;;;;;32.70;6.03;;;;;;;9.30;100.00;100869.06;5060354;28;20043;-76
2023/01/11 10:42:00;;;;;;;32.75;5.20;;;;;;;9.38;100.00;100867.81;5041434;28;20188;-76
2023/01/11 10:44:38;;;;;;;32.45;5.38;;;;;;;9.42;100.00;100864.03;5020753;28;20080;-77
2023/01/11 10:47:11;;;;;;;30.17;6.25;;;;;;;9.48;100.00;100869.06;5066480;28;20100;-76
2023/01/11 10:50:01;;;;;;;27.90;5.65;;;;;;;9.47;100.00;100873.53;5052066;28;20107;-76
2023/01/11 10:52:39;;;;;;;33.40;5.20;;;;;;;9.47;100.00;100870.88;5051885;28;20135;-76
2023/01/11 10:55:22;;;;;;;27.73;3.90;;;;;;;9.44;100.00;100872.81;5052815;28;20414;-76
2023/01/11 10:57:55;;;;;;;26.52;4.32;;;;;;;9.42;100.00;100874.69;5070409;28;20024;-76
2023/01/11 11:00:43;;;;;;;33.33;4.53;;;;;;;9.58;100.00;100875.66;5051608;28;20394;-77
2023/01/11 11:03:26;;;;;;;28.38;3.97;;;;;;;9.84;100.00;100877.00;5078503;28;20450;-75
2023/01/11 11:06:27;;;;;;;30.83;4.68;;;;;;;9.96;100.00;100880.81;5031796;28;20110;-76
2023/01/11 11:09:12;;;;;;;23.90;4.88;;;;;;;10.06;100.00;100868.72;5068049;28;20593;-76
2023/01/11 11:11:43;;;;;;;28.55;4.07;;;;;;;9.99;100.00;100869.09;5091093;28;20044;-77
2023/01/11 11:14:34;;;;;;;26.33;4.55;;;;;;;9.85;100.00;100869.84;5051096;28;20487;-77
2023/01/11 11:17:17;;;;;;;34.05;6.30;;;;;;;9.90;100.00;100870.47;5070709;28;20059;-76
2023/01/11 11:19:43;;;;;;;25.08;4.75;;;;;;;9.81;100.00;100871.81;5050845;28;20028;-77
2023/01/11 11:22:11;;;;;;;32.08;4.57;;;;;;;9.70;100.00;100869.69;5052860;28;20119;-77
2023/01/11 11:25:21;;;;;;;28.65;4.70;;;;;;;9.64;100.00;100866.50;5070502;28;20028;-77
2023/01/11 11:27:49;;;;;;;31.80;4.40;;;;;;;9.54;100.00;100858.06;5012573;28;20408;-76
2023/01/11 11:30:27;;;;;;;35.85;6.03;;;;;;;9.50;100.00;100859.19;5010902;28;20551;-76
2023/01/11 11:33:00;;;;;;;26.42;4.18;;;;;;;9.51;100.00;100868.91;5016618;28;20052;-76
2023/01/11 11:35:45;;;;;;;25.95;4.43;;;;;;;9.57;100.00;100841.94;5070752;28;20411;-76
2023/01/11 11:38:32;;;;;;;27.08;4.05;;;;;;;9.64;100.00;100864.69;5051482;28;20043;-76
2023/01/11 11:41:12;;;;;;;28.85;4.05;;;;;;;9.66;100.00;100833.47;5070054;28;20024;-76
2023/01/11 11:43:40;;;;;;;36.30;4.82;;;;;;;9.64;100.00;100864.69;5051917;28;20068;-76
2023/01/11 11:46:15;;;;;;;31.58;3.58;;;;;;;9.70;100.00;100864.34;5069485;28;20040;-76
2023/01/11 11:48:43;;;;;;;29.17;4.40;;;;;;;9.49;100.00;100838.81;5069571;28;20123;-77
2023/01/11 11:51:21;;;;;;;28.95;4.93;;;;;;;9.65;100.00;100869.09;5069980;28;20056;-75
2023/01/11 11:53:57;;;;;;;21.67;5.05;;;;;;;9.38;100.00;100844.69;5068925;28;20071;-75
2023/01/11 11:56:37;;;;;;;25.23;4.20;;;;;;;9.55;100.00;100886.47;5052242;28;20169;-76
2023/01/11 11:59:08;;;;;;;31.05;3.83;;;;;;;9.69;100.00;100885.75;5035295;28;20460;-74
2023/01/11 12:01:42;;;;;;;29.40;4.93;;;;;;;9.77;100.00;100880.91;5051128;28;20043;-80